createdAt,value
2023-04-06T00:02:01.892Z,6.10
2023-04-06T00:07:05.175Z,6.43
2023-04-06T00:12:09.642Z,8.13
2023-04-06T00:17:12.627Z,8.27
2023-04-06T00:22:15.616Z,7.70
2023-04-06T00:27:19.926Z,6.67
2023-04-06T00:32:22.953Z,6.73
2023-04-06T00:37:26.163Z,7.47
2023-04-06T00:42:30.698Z,6.97
2023-04-06T00:47:34.910Z,6.73
2023-04-06T00:52:37.887Z,5.73
2023-04-06T00:57:45.001Z,5.97
2023-04-06T01:02:49.148Z,5.23
2023-04-06T01:07:56.234Z,5.40
2023-04-06T01:13:03.738Z,5.10
2023-04-06T01:18:30.238Z,5.13
2023-04-06T01:23:49.515Z,6.03
2023-04-06T01:29:00.133Z,5.40
2023-04-06T01:34:05.746Z,5.13
2023-04-06T01:39:10.870Z,5.00
2023-04-06T01:44:18.990Z,4.13
2023-04-06T01:49:26.786Z,4.63
2023-04-06T01:54:33.749Z,4.23
2023-04-06T02:00:07.206Z,4.73
2023-04-06T02:05:25.341Z,4.50
2023-04-06T02:10:31.439Z,4.30
2023-04-06T02:15:38.144Z,5.33
2023-04-06T02:20:41.589Z,5.10
2023-04-06T02:25:45.897Z,5.20
2023-04-06T02:30:49.097Z,5.40
2023-04-06T02:35:53.229Z,4.43
2023-04-06T02:40:57.633Z,4.60
2023-04-06T02:46:03.374Z,5.27
2023-04-06T02:51:10.008Z,5.27
2023-04-06T02:56:15.624Z,5.10
2023-04-06T03:01:23.457Z,5.17
2023-04-06T03:06:32.583Z,5.97
2023-04-06T03:11:46.140Z,5.50
2023-04-06T03:16:49.307Z,5.03
2023-04-06T03:21:56.724Z,4.90
2023-04-06T03:27:02.526Z,5.10
2023-04-06T03:32:06.872Z,6.03
2023-04-06T03:37:14.960Z,6.33
2023-04-06T03:42:25.908Z,6.07
2023-04-06T03:47:33.943Z,4.83
2023-04-06T03:52:42.094Z,6.40
2023-04-06T03:57:46.401Z,5.17
2023-04-06T04:02:49.542Z,5.53
2023-04-06T04:07:52.522Z,6.37
2023-04-06T04:13:01.116Z,8.80
2023-04-06T04:18:04.367Z,6.53
2023-04-06T04:23:07.360Z,6.77
2023-04-06T04:28:13.050Z,8.93
2023-04-06T04:33:18.144Z,7.63
2023-04-06T04:38:22.030Z,8.70
2023-04-06T04:43:32.765Z,7.53
2023-04-06T04:48:39.876Z,8.93
2023-04-06T04:53:43.991Z,7.57
2023-04-06T04:58:57.734Z,8.63
2023-04-06T05:04:02.318Z,7.97
2023-04-06T05:09:06.445Z,7.40
2023-04-06T05:14:11.974Z,7.80
2023-04-06T05:19:15.148Z,8.10
2023-04-06T05:24:21.018Z,7.70
2023-04-06T05:29:27.206Z,7.60
2023-04-06T05:34:30.408Z,7.10
2023-04-06T05:39:34.986Z,7.87
2023-04-06T05:44:41.053Z,10.13
2023-04-06T05:49:48.719Z,8.87
2023-04-06T05:55:00.479Z,8.27
2023-04-06T06:00:07.732Z,9.87
2023-04-06T06:05:23.354Z,10.50
2023-04-06T06:10:27.582Z,11.50
2023-04-06T06:15:33.131Z,8.30
2023-04-06T06:20:36.475Z,8.33
2023-04-06T06:25:41.785Z,7.87
2023-04-06T06:30:46.920Z,7.80
2023-04-06T06:35:55.471Z,7.30
2023-04-06T06:41:03.495Z,8.77
2023-04-06T06:46:10.792Z,8.50
2023-04-06T06:51:13.888Z,7.90
2023-04-06T06:56:26.769Z,7.00
2023-04-06T07:01:31.825Z,7.30
2023-04-06T07:06:34.979Z,7.90
2023-04-06T07:11:38.012Z,8.27
2023-04-06T07:16:45.488Z,8.47
2023-04-06T07:21:50.196Z,8.70
2023-04-06T07:26:53.358Z,8.20
2023-04-06T07:31:57.806Z,9.23
2023-04-06T07:37:03.859Z,9.80
2023-04-06T07:42:09.422Z,10.13
2023-04-06T07:47:13.962Z,8.40
2023-04-06T07:52:16.945Z,6.80
2023-04-06T07:57:21.060Z,6.27
2023-04-06T08:02:25.407Z,7.53
2023-04-06T08:07:28.661Z,5.90
2023-04-06T08:12:31.685Z,6.87
2023-04-06T08:17:36.161Z,7.77
2023-04-06T08:22:39.167Z,6.83
2023-04-06T08:27:42.140Z,6.60
2023-04-06T08:32:46.665Z,6.93
2023-04-06T08:37:49.716Z,6.80
2023-04-06T08:42:56.399Z,6.40
2023-04-06T08:48:02.916Z,7.00
2023-04-06T08:53:07.900Z,7.03
2023-04-06T08:58:11.167Z,6.77
2023-04-06T09:03:16.403Z,6.50
2023-04-06T09:08:19.485Z,6.60
2023-04-06T09:13:22.451Z,6.73
2023-04-06T09:18:32.256Z,6.47
2023-04-06T09:23:35.447Z,6.30
2023-04-06T09:28:49.487Z,6.17
2023-04-06T09:33:54.475Z,6.17
2023-04-06T09:39:00.170Z,5.80
2023-04-06T09:44:06.906Z,6.00
2023-04-06T09:49:12.531Z,5.87
2023-04-06T09:54:20.370Z,6.10
2023-04-06T09:59:31.742Z,5.23
2023-04-06T10:04:45.261Z,6.60
2023-04-06T10:09:49.741Z,5.60
2023-04-06T10:14:53.001Z,6.37
2023-04-06T10:20:01.885Z,5.60
2023-04-06T10:25:05.551Z,5.90
2023-04-06T10:30:09.446Z,5.70
2023-04-06T10:35:17.880Z,5.60
2023-04-06T10:40:25.978Z,5.80
2023-04-06T10:45:33.641Z,5.80
2023-04-06T10:50:39.104Z,5.53
2023-04-06T10:55:43.262Z,6.30
2023-04-06T11:00:50.832Z,6.33
2023-04-06T11:05:55.851Z,5.73
2023-04-06T11:11:09.695Z,6.80
2023-04-06T11:16:16.849Z,6.70
2023-04-06T11:21:21.859Z,6.57
2023-04-06T11:26:24.848Z,6.00
2023-04-06T11:31:28.020Z,5.60
2023-04-06T11:36:32.550Z,6.40
2023-04-06T11:41:35.611Z,6.50
2023-04-06T11:46:38.599Z,5.77
2023-04-06T11:51:43.049Z,6.13
2023-04-06T11:56:48.660Z,6.03
2023-04-06T12:01:53.143Z,5.63
2023-04-06T12:06:57.454Z,6.20
2023-04-06T12:12:00.413Z,6.27
2023-04-06T12:17:03.999Z,6.07
2023-04-06T12:22:08.515Z,7.10
2023-04-06T12:27:12.534Z,6.70
2023-04-06T12:32:15.855Z,6.33
2023-04-06T12:37:21.448Z,6.27
2023-04-06T12:42:24.389Z,6.33
2023-04-06T12:47:28.795Z,5.97
2023-04-06T12:52:36.060Z,8.07
2023-04-06T12:57:39.195Z,5.83
2023-04-06T13:02:47.530Z,6.40
2023-04-06T13:07:52.239Z,6.60
2023-04-06T13:12:55.372Z,6.13
2023-04-06T13:17:58.300Z,6.53
2023-04-06T13:23:02.773Z,6.40
2023-04-06T13:28:05.883Z,6.50
2023-04-06T13:33:09.206Z,6.00
2023-04-06T13:38:14.085Z,6.43
2023-04-06T13:43:19.246Z,6.33
2023-04-06T13:48:22.212Z,6.67
2023-04-06T13:53:26.553Z,7.10
2023-04-06T13:58:29.415Z,7.63
2023-04-06T14:03:32.659Z,7.17
2023-04-06T14:08:37.100Z,6.23
2023-04-06T14:13:40.319Z,6.20
2023-04-06T14:18:43.745Z,7.00
2023-04-06T14:23:48.236Z,6.67
2023-04-06T14:28:51.553Z,6.40
2023-04-06T14:33:54.776Z,7.33
2023-04-06T14:39:00.553Z,6.60
2023-04-06T14:44:03.947Z,7.80
2023-04-06T14:49:07.006Z,6.93
2023-04-06T14:54:11.276Z,7.47
2023-04-06T14:59:14.226Z,6.30
2023-04-06T15:04:17.210Z,6.90
2023-04-06T15:09:21.586Z,6.63
2023-04-06T15:14:24.461Z,6.70
2023-04-06T15:19:27.902Z,7.03
2023-04-06T15:24:32.230Z,6.27
2023-04-06T15:29:35.104Z,6.80
2023-04-06T15:34:38.041Z,6.40
2023-04-06T15:39:42.304Z,8.13
2023-04-06T15:44:45.174Z,6.40
2023-04-06T15:49:48.111Z,6.80
2023-04-06T15:54:52.402Z,7.20
2023-04-06T15:59:56.223Z,6.30
2023-04-06T16:05:01.350Z,6.63
2023-04-06T16:10:07.159Z,6.50
2023-04-06T16:15:11.207Z,6.30
2023-04-06T16:20:15.756Z,5.80
2023-04-06T16:25:20.121Z,7.50
2023-04-06T16:30:26.001Z,6.93
2023-04-06T16:35:28.972Z,5.40
2023-04-06T16:40:33.243Z,5.30
2023-04-06T16:45:36.183Z,5.57
2023-04-06T16:50:39.047Z,6.07
2023-04-06T16:55:43.796Z,5.90
2023-04-06T17:00:46.805Z,7.40
2023-04-06T17:05:49.795Z,6.60
2023-04-06T17:16:01.992Z,6.20
2023-04-06T17:21:06.036Z,6.40
2023-04-06T17:26:10.402Z,7.50
2023-04-06T17:31:14.021Z,4.70
2023-04-06T17:36:17.147Z,4.90
2023-04-06T17:41:22.643Z,6.63
2023-04-06T17:46:25.681Z,6.37
2023-04-06T17:51:28.869Z,6.13
2023-04-06T17:56:33.306Z,7.53
2023-04-06T18:01:36.386Z,6.60
2023-04-06T18:06:39.488Z,10.17
2023-04-06T18:11:44.615Z,7.07
2023-04-06T18:16:47.636Z,11.97
2023-04-06T18:21:50.995Z,19.30
2023-04-06T18:26:56.031Z,14.63
2023-04-06T18:31:58.908Z,14.17
2023-04-06T18:37:02.061Z,18.50
2023-04-06T18:42:06.581Z,14.93
2023-04-06T18:47:09.601Z,15.67
2023-04-06T18:52:12.579Z,18.23
2023-04-06T18:57:16.854Z,18.83
2023-04-06T19:02:19.942Z,15.63
2023-04-06T19:07:23.306Z,13.80
2023-04-06T19:12:27.847Z,12.07
2023-04-06T19:17:30.764Z,15.90
2023-04-06T19:22:37.119Z,13.00
2023-04-06T19:27:42.040Z,11.00
2023-04-06T19:32:46.025Z,11.00
2023-04-06T19:37:49.333Z,12.07
2023-04-06T19:42:53.642Z,11.17
2023-04-06T19:47:56.613Z,12.23
2023-04-06T19:53:01.408Z,13.17
2023-04-06T19:58:06.313Z,14.20
2023-04-06T20:03:09.551Z,15.73
2023-04-06T20:08:12.677Z,17.07
2023-04-06T20:13:16.919Z,15.90
2023-04-06T20:18:20.075Z,16.13
2023-04-06T20:23:23.045Z,13.33
2023-04-06T20:28:27.456Z,12.73
2023-04-06T20:33:30.356Z,12.57
2023-04-06T20:38:34.040Z,12.60
2023-04-06T20:43:38.452Z,11.80
2023-04-06T20:48:41.406Z,11.93
2023-04-06T20:53:44.304Z,13.03
2023-04-06T20:58:48.652Z,14.70
2023-04-06T21:03:51.765Z,14.67
2023-04-06T21:08:55.021Z,15.83
2023-04-06T21:13:59.276Z,18.20
2023-04-06T21:19:02.236Z,16.30
2023-04-06T21:24:05.389Z,17.17
2023-04-06T21:29:09.824Z,15.10
2023-04-06T21:34:13.537Z,14.03
2023-04-06T21:39:16.444Z,14.17
2023-04-06T21:44:20.925Z,13.33
2023-04-06T21:49:24.058Z,13.40
2023-04-06T21:54:26.906Z,13.63
2023-04-06T21:59:31.201Z,14.67
2023-04-06T22:04:34.421Z,13.20
2023-04-06T22:09:37.418Z,13.70
2023-04-06T22:14:41.877Z,13.57
2023-04-06T22:19:44.746Z,15.30
2023-04-06T22:24:47.711Z,15.37
2023-04-06T22:29:51.986Z,13.83
2023-04-06T22:34:54.912Z,14.37
2023-04-06T22:39:57.910Z,14.53
2023-04-06T22:45:02.199Z,15.33
2023-04-06T22:50:07.144Z,15.23
2023-04-06T22:55:10.171Z,14.63
2023-04-06T23:00:15.209Z,13.70
2023-04-06T23:05:18.210Z,15.33
2023-04-06T23:10:21.199Z,15.07
2023-04-06T23:15:25.506Z,14.70
2023-04-06T23:20:28.395Z,14.53
2023-04-06T23:25:31.381Z,13.70
2023-04-06T23:30:35.637Z,13.60
2023-04-06T23:35:38.526Z,14.13
2023-04-06T23:40:41.434Z,14.20
2023-04-06T23:45:45.912Z,13.90
2023-04-06T23:50:48.866Z,14.60
2023-04-06T23:55:51.886Z,14.40
